createdAt,value
2023-04-07T00:00:23.150Z,24.97
2023-04-07T00:05:44.469Z,25.30
2023-04-07T00:11:06.655Z,24.83
2023-04-07T00:16:28.306Z,24.97
2023-04-07T00:21:49.673Z,35.97
2023-04-07T00:27:11.163Z,28.43
2023-04-07T00:32:33.376Z,34.73
2023-04-07T00:37:57.137Z,26.43
2023-04-07T00:43:19.902Z,24.03
2023-04-07T00:48:41.088Z,25.23
2023-04-07T00:54:03.170Z,34.23
2023-04-07T00:59:25.394Z,65.17
2023-04-07T01:05:03.014Z,37.77
2023-04-07T01:10:36.510Z,22.13
2023-04-07T01:16:09.792Z,23.50
2023-04-07T01:21:39.469Z,39.27
2023-04-07T01:27:14.173Z,39.73
2023-04-07T01:32:37.134Z,21.53
2023-04-07T01:38:00.558Z,25.60
2023-04-07T01:43:23.364Z,28.57
2023-04-07T01:48:45.034Z,25.63
2023-04-07T01:54:06.883Z,24.57
2023-04-07T01:59:29.680Z,27.30
2023-04-07T02:04:58.703Z,24.83
2023-04-07T02:10:23.889Z,25.03
2023-04-07T02:15:48.700Z,26.50
2023-04-07T02:21:15.697Z,20.83
2023-04-07T02:26:40.161Z,29.00
2023-04-07T02:32:01.892Z,22.77
2023-04-07T02:37:24.172Z,29.37
2023-04-07T02:42:46.422Z,26.10
2023-04-07T02:48:07.893Z,30.07
2023-04-07T02:53:29.345Z,29.90
2023-04-07T02:58:50.460Z,25.60
2023-04-07T03:04:13.399Z,23.30
2023-04-07T03:09:35.400Z,28.83
2023-04-07T03:14:58.306Z,25.00
2023-04-07T03:20:20.740Z,24.70
2023-04-07T03:25:42.648Z,24.90
2023-04-07T03:31:06.002Z,30.17
2023-04-07T03:36:28.274Z,30.43
2023-04-07T03:41:56.299Z,26.33
2023-04-07T03:47:20.671Z,34.70
2023-04-07T03:52:47.589Z,31.87
2023-04-07T03:58:17.844Z,29.37
2023-04-07T04:03:42.758Z,26.40
2023-04-07T04:09:24.768Z,24.00
2023-04-07T04:14:46.718Z,27.47
2023-04-07T04:20:10.100Z,28.53
2023-04-07T04:25:41.730Z,24.77
2023-04-07T04:31:06.184Z,27.17
2023-04-07T04:36:33.150Z,43.57
2023-04-07T04:41:59.527Z,31.20
2023-04-07T04:47:27.359Z,33.23
2023-04-07T04:52:49.020Z,28.00
2023-04-07T04:58:17.374Z,24.20
2023-04-07T05:03:42.858Z,26.07
2023-04-07T05:09:11.958Z,36.47
2023-04-07T05:14:39.148Z,28.43
2023-04-07T05:20:03.141Z,33.67
2023-04-07T05:25:31.245Z,31.87
2023-04-07T05:30:55.416Z,44.77
2023-04-07T05:36:27.863Z,26.20
2023-04-07T05:41:52.122Z,38.63
2023-04-07T05:47:16.920Z,25.57
2023-04-07T05:52:38.920Z,28.67
2023-04-07T05:58:11.878Z,33.27
2023-04-07T06:03:36.205Z,38.77
2023-04-07T06:09:08.632Z,40.67
2023-04-07T06:14:30.124Z,41.50
2023-04-07T06:19:51.355Z,38.93
2023-04-07T06:25:12.882Z,36.50
2023-04-07T06:30:35.259Z,35.33
2023-04-07T06:35:57.835Z,28.13
2023-04-07T06:41:19.436Z,29.27
2023-04-07T06:46:42.440Z,27.67
2023-04-07T06:52:03.828Z,27.23
2023-04-07T06:57:25.697Z,26.70
2023-04-07T07:02:47.200Z,25.70
2023-04-07T07:08:08.912Z,28.30
2023-04-07T07:13:30.362Z,23.23
2023-04-07T07:18:52.053Z,26.00
2023-04-07T07:24:13.581Z,23.47
2023-04-07T07:29:35.262Z,21.70
2023-04-07T07:34:57.000Z,22.27
2023-04-07T07:40:19.165Z,23.27
2023-04-07T07:45:40.965Z,23.77
2023-04-07T07:51:04.743Z,23.37
2023-04-07T07:56:26.352Z,21.00
2023-04-07T08:01:48.079Z,21.27
2023-04-07T08:07:09.814Z,19.87
2023-04-07T08:12:31.414Z,20.63
2023-04-07T08:17:54.702Z,19.53
2023-04-07T08:23:17.366Z,21.33
2023-04-07T08:28:39.659Z,16.03
2023-04-07T08:34:00.838Z,15.60
2023-04-07T08:39:23.058Z,16.77
2023-04-07T08:44:45.239Z,14.23
2023-04-07T08:50:10.088Z,14.03
2023-04-07T08:55:31.731Z,17.87
2023-04-07T09:00:53.533Z,15.67
2023-04-07T09:06:15.530Z,17.67
2023-04-07T09:11:40.146Z,18.27
2023-04-07T09:17:01.848Z,21.30
2023-04-07T09:22:43.763Z,17.10
2023-04-07T09:28:05.938Z,17.03
2023-04-07T09:33:31.157Z,16.50
2023-04-07T09:38:53.773Z,17.77
2023-04-07T09:44:15.857Z,16.77
2023-04-07T09:49:52.726Z,18.13
2023-04-07T09:55:15.068Z,16.40
2023-04-07T10:00:37.278Z,16.30
2023-04-07T10:06:01.233Z,19.43
2023-04-07T10:11:22.867Z,17.10
2023-04-07T10:16:46.129Z,18.17
2023-04-07T10:22:08.120Z,15.93
2023-04-07T10:27:41.449Z,15.67
2023-04-07T10:33:02.811Z,16.40
2023-04-07T10:38:24.632Z,17.07
2023-04-07T10:43:46.928Z,19.40
2023-04-07T10:49:10.388Z,16.57
2023-04-07T10:54:32.103Z,18.40
2023-04-07T11:00:12.155Z,17.40
2023-04-07T11:05:33.569Z,16.87
2023-04-07T11:10:54.733Z,20.20
2023-04-07T11:16:18.531Z,20.77
2023-04-07T11:21:40.127Z,15.80
2023-04-07T11:27:02.216Z,18.43
2023-04-07T11:32:26.170Z,18.03
2023-04-07T11:37:47.909Z,24.50
2023-04-07T11:43:20.067Z,19.83
2023-04-07T11:48:43.298Z,22.07
2023-04-07T11:54:04.731Z,22.03
2023-04-07T11:59:26.626Z,20.37
2023-04-07T12:04:57.965Z,19.73
2023-04-07T12:10:23.822Z,18.77
2023-04-07T12:15:45.095Z,21.10
2023-04-07T12:21:06.780Z,22.17
2023-04-07T12:26:28.285Z,18.37
2023-04-07T12:31:51.323Z,22.43
2023-04-07T12:37:12.808Z,24.47
2023-04-07T12:42:34.275Z,19.77
2023-04-07T12:47:55.865Z,23.13
2023-04-07T12:53:17.469Z,23.47
2023-04-07T12:58:39.303Z,27.00
2023-04-07T13:04:01.012Z,19.90
2023-04-07T13:09:22.867Z,19.23
2023-04-07T13:14:57.111Z,21.80
2023-04-07T13:20:21.855Z,23.13
2023-04-07T13:25:43.549Z,21.43
2023-04-07T13:31:05.141Z,19.70
2023-04-07T13:36:28.440Z,24.13
2023-04-07T13:41:49.721Z,20.20
2023-04-07T13:47:13.517Z,19.27
2023-04-07T13:52:35.725Z,21.07
2023-04-07T13:57:57.143Z,20.67
2023-04-07T14:03:18.948Z,18.40
2023-04-07T14:08:40.364Z,19.87
2023-04-07T14:14:02.244Z,21.20
2023-04-07T14:19:24.198Z,22.27
2023-04-07T14:24:45.725Z,20.87
2023-04-07T14:30:08.051Z,21.33
2023-04-07T14:35:29.608Z,23.20
2023-04-07T14:40:54.718Z,21.80
2023-04-07T14:46:16.132Z,17.63
2023-04-07T14:51:37.642Z,21.33
2023-04-07T14:56:59.154Z,16.77
2023-04-07T15:02:20.807Z,15.53
2023-04-07T15:07:42.266Z,16.83
2023-04-07T15:13:03.632Z,17.33
2023-04-07T15:18:24.975Z,16.03
2023-04-07T15:23:47.284Z,14.00
2023-04-07T15:29:08.829Z,14.83
2023-04-07T15:34:30.328Z,12.83
2023-04-07T15:39:52.400Z,17.53
2023-04-07T15:45:13.813Z,13.00
2023-04-07T15:50:36.272Z,17.60
2023-04-07T15:55:57.848Z,17.97
2023-04-07T16:01:20.035Z,14.57
2023-04-07T16:06:41.618Z,18.13
2023-04-07T16:12:03.215Z,17.50
2023-04-07T16:17:24.826Z,16.07
2023-04-07T16:22:48.233Z,17.43
2023-04-07T16:28:09.382Z,17.90
2023-04-07T16:33:31.112Z,19.93
2023-04-07T16:38:52.707Z,20.03
2023-04-07T16:44:13.939Z,18.30
2023-04-07T16:49:36.736Z,16.47
2023-04-07T16:54:59.439Z,18.43
2023-04-07T17:00:21.354Z,20.80
2023-04-07T17:05:44.687Z,16.10
2023-04-07T17:11:10.598Z,14.23
2023-04-07T17:16:32.165Z,16.17
2023-04-07T17:21:53.808Z,19.07
2023-04-07T17:27:17.813Z,20.67
2023-04-07T17:32:39.683Z,15.87
2023-04-07T17:38:03.686Z,17.23
2023-04-07T17:43:25.221Z,16.07
2023-04-07T17:48:47.084Z,18.50
2023-04-07T17:54:08.278Z,20.33
2023-04-07T17:59:30.003Z,20.57
2023-04-07T18:04:51.664Z,21.20
2023-04-07T18:10:13.179Z,20.80
2023-04-07T18:15:34.906Z,20.93
2023-04-07T18:20:56.566Z,21.67
2023-04-07T18:26:18.106Z,20.33
2023-04-07T18:31:44.037Z,18.50
2023-04-07T18:37:05.375Z,16.70
2023-04-07T18:42:26.979Z,18.47
2023-04-07T18:47:48.398Z,19.53
2023-04-07T18:53:09.829Z,23.83
2023-04-07T18:58:31.920Z,27.63
2023-04-07T19:03:53.870Z,30.40
2023-04-07T19:09:15.504Z,30.00
2023-04-07T19:14:37.082Z,29.37
2023-04-07T19:19:58.425Z,26.23
2023-04-07T19:25:20.011Z,25.03
2023-04-07T19:30:41.203Z,27.83
2023-04-07T19:36:03.926Z,24.47
2023-04-07T19:41:25.110Z,26.50
2023-04-07T19:46:46.988Z,29.40
2023-04-07T19:52:08.301Z,23.57
2023-04-07T19:57:31.252Z,25.20
2023-04-07T20:02:52.916Z,27.47
2023-04-07T20:08:14.266Z,22.30
2023-04-07T20:13:35.778Z,19.33
2023-04-07T20:18:57.300Z,19.33
2023-04-07T20:24:19.045Z,22.67
2023-04-07T20:29:40.944Z,18.93
2023-04-07T20:35:04.163Z,20.00
2023-04-07T20:40:25.727Z,16.30
2023-04-07T20:45:47.624Z,18.90
2023-04-07T20:51:09.078Z,17.57
2023-04-07T20:56:30.679Z,14.93
2023-04-07T21:01:52.302Z,16.57
2023-04-07T21:07:13.908Z,16.47
2023-04-07T21:12:35.932Z,15.13
2023-04-07T21:17:57.282Z,14.20
2023-04-07T21:23:19.739Z,14.27
2023-04-07T21:28:42.253Z,16.10
2023-04-07T21:34:03.783Z,17.73
2023-04-07T21:39:25.284Z,17.27
2023-04-07T21:44:47.442Z,13.03
2023-04-07T21:50:09.358Z,12.97
2023-04-07T21:55:30.929Z,14.83
2023-04-07T22:00:52.512Z,12.20
2023-04-07T22:06:14.378Z,13.67
2023-04-07T22:11:35.627Z,13.80
2023-04-07T22:16:57.204Z,15.60
2023-04-07T22:22:18.789Z,15.40
2023-04-07T22:27:40.429Z,16.03
2023-04-07T22:33:01.679Z,19.00
2023-04-07T22:38:23.734Z,20.27
2023-04-07T22:43:45.461Z,19.67
2023-04-07T22:49:07.567Z,19.30
2023-04-07T22:54:28.954Z,22.67
2023-04-07T22:59:50.459Z,20.47
2023-04-07T23:05:11.804Z,19.83
2023-04-07T23:10:34.495Z,22.57
2023-04-07T23:15:56.121Z,25.17
2023-04-07T23:21:17.626Z,28.60
2023-04-07T23:26:38.927Z,22.97
2023-04-07T23:32:01.042Z,30.83
2023-04-07T23:37:22.384Z,26.97
2023-04-07T23:42:43.640Z,29.40
2023-04-07T23:48:05.580Z,31.20
2023-04-07T23:53:26.765Z,27.47
2023-04-07T23:58:49.290Z,31.60
